sensor_id;sensor_type;location;lat;lon;timestamp;P1;durP1;ratioP1;P2;durP2;ratioP2
42702;SDS011;28341;52.064;4.920;2023-11-18T00:01:30;68.07;;;41.00;;
42702;SDS011;28341;52.064;4.920;2023-11-18T00:03:35;89.13;;;56.30;;
42702;SDS011;28341;52.064;4.920;2023-11-18T00:05:40;104.70;;;66.85;;
42702;SDS011;28341;52.064;4.920;2023-11-18T00:07:44;73.45;;;46.83;;
42702;SDS011;28341;52.064;4.920;2023-11-18T00:09:49;64.10;;;40.38;;
42702;SDS011;28341;52.064;4.920;2023-11-18T00:11:53;64.75;;;40.20;;
42702;SDS011;28341;52.064;4.920;2023-11-18T00:13:57;59.80;;;37.53;;
42702;SDS011;28341;52.064;4.920;2023-11-18T00:16:03;61.15;;;38.83;;
42702;SDS011;28341;52.064;4.920;2023-11-18T00:18:12;59.58;;;37.03;;
42702;SDS011;28341;52.064;4.920;2023-11-18T00:20:16;59.03;;;36.88;;
42702;SDS011;28341;52.064;4.920;2023-11-18T00:22:21;57.40;;;36.67;;
42702;SDS011;28341;52.064;4.920;2023-11-18T00:24:25;55.75;;;36.22;;
42702;SDS011;28341;52.064;4.920;2023-11-18T00:26:29;104.60;;;68.40;;
42702;SDS011;28341;52.064;4.920;2023-11-18T00:28:37;78.72;;;52.53;;
42702;SDS011;28341;52.064;4.920;2023-11-18T00:30:42;69.30;;;42.33;;
42702;SDS011;28341;52.064;4.920;2023-11-18T00:32:46;65.03;;;39.55;;
42702;SDS011;28341;52.064;4.920;2023-11-18T00:34:51;62.63;;;41.25;;
42702;SDS011;28341;52.064;4.920;2023-11-18T00:36:55;84.00;;;50.53;;
42702;SDS011;28341;52.064;4.920;2023-11-18T00:39:01;71.38;;;45.88;;
42702;SDS011;28341;52.064;4.920;2023-11-18T00:41:06;86.15;;;53.58;;
42702;SDS011;28341;52.064;4.920;2023-11-18T00:43:11;86.38;;;56.58;;
42702;SDS011;28341;52.064;4.920;2023-11-18T00:45:18;76.68;;;50.17;;
42702;SDS011;28341;52.064;4.920;2023-11-18T00:47:22;66.32;;;39.58;;
42702;SDS011;28341;52.064;4.920;2023-11-18T00:49:27;68.32;;;38.80;;
42702;SDS011;28341;52.064;4.920;2023-11-18T00:51:31;60.30;;;38.10;;
42702;SDS011;28341;52.064;4.920;2023-11-18T00:53:35;64.47;;;37.72;;
42702;SDS011;28341;52.064;4.920;2023-11-18T00:55:37;59.20;;;37.45;;
42702;SDS011;28341;52.064;4.920;2023-11-18T00:57:42;68.10;;;39.10;;
42702;SDS011;28341;52.064;4.920;2023-11-18T00:59:46;74.90;;;40.70;;
42702;SDS011;28341;52.064;4.920;2023-11-18T01:01:50;60.50;;;39.40;;
42702;SDS011;28341;52.064;4.920;2023-11-18T01:03:55;61.00;;;37.38;;
42702;SDS011;28341;52.064;4.920;2023-11-18T01:06:00;59.33;;;39.17;;
42702;SDS011;28341;52.064;4.920;2023-11-18T01:08:05;54.95;;;36.75;;
42702;SDS011;28341;52.064;4.920;2023-11-18T01:10:10;62.90;;;39.15;;
42702;SDS011;28341;52.064;4.920;2023-11-18T01:12:14;53.42;;;35.78;;
42702;SDS011;28341;52.064;4.920;2023-11-18T01:14:19;62.90;;;39.22;;
42702;SDS011;28341;52.064;4.920;2023-11-18T01:16:23;64.38;;;39.63;;
42702;SDS011;28341;52.064;4.920;2023-11-18T01:18:31;60.63;;;38.13;;
42702;SDS011;28341;52.064;4.920;2023-11-18T01:20:35;53.83;;;36.53;;
42702;SDS011;28341;52.064;4.920;2023-11-18T01:22:40;61.05;;;36.75;;
42702;SDS011;28341;52.064;4.920;2023-11-18T01:24:45;65.25;;;36.88;;
42702;SDS011;28341;52.064;4.920;2023-11-18T01:26:47;65.00;;;39.47;;
42702;SDS011;28341;52.064;4.920;2023-11-18T01:28:52;64.50;;;38.05;;
42702;SDS011;28341;52.064;4.920;2023-11-18T01:30:56;61.65;;;37.85;;
42702;SDS011;28341;52.064;4.920;2023-11-18T01:33:01;61.13;;;39.03;;
42702;SDS011;28341;52.064;4.920;2023-11-18T01:35:09;70.65;;;39.80;;
42702;SDS011;28341;52.064;4.920;2023-11-18T01:37:14;60.25;;;37.78;;
42702;SDS011;28341;52.064;4.920;2023-11-18T01:39:18;71.43;;;38.60;;
42702;SDS011;28341;52.064;4.920;2023-11-18T01:41:22;72.93;;;39.30;;
42702;SDS011;28341;52.064;4.920;2023-11-18T01:43:27;63.97;;;38.33;;
42702;SDS011;28341;52.064;4.920;2023-11-18T01:45:32;60.88;;;37.97;;
42702;SDS011;28341;52.064;4.920;2023-11-18T01:47:36;61.90;;;37.58;;
42702;SDS011;28341;52.064;4.920;2023-11-18T01:49:40;55.58;;;35.67;;
42702;SDS011;28341;52.064;4.920;2023-11-18T01:51:47;64.60;;;37.08;;
42702;SDS011;28341;52.064;4.920;2023-11-18T01:53:53;59.35;;;36.00;;
42702;SDS011;28341;52.064;4.920;2023-11-18T01:55:58;59.15;;;34.60;;
42702;SDS011;28341;52.064;4.920;2023-11-18T01:58:05;55.92;;;34.17;;
42702;SDS011;28341;52.064;4.920;2023-11-18T02:00:11;57.25;;;33.22;;
42702;SDS011;28341;52.064;4.920;2023-11-18T02:02:17;55.65;;;33.63;;
42702;SDS011;28341;52.064;4.920;2023-11-18T02:04:23;49.38;;;34.75;;
42702;SDS011;28341;52.064;4.920;2023-11-18T02:06:28;53.47;;;33.33;;
42702;SDS011;28341;52.064;4.920;2023-11-18T02:08:32;47.17;;;31.52;;
42702;SDS011;28341;52.064;4.920;2023-11-18T02:10:49;61.88;;;34.30;;
42702;SDS011;28341;52.064;4.920;2023-11-18T02:13:04;48.30;;;32.35;;
42702;SDS011;28341;52.064;4.920;2023-11-18T02:15:14;49.30;;;31.08;;
42702;SDS011;28341;52.064;4.920;2023-11-18T02:17:20;54.65;;;32.90;;
42702;SDS011;28341;52.064;4.920;2023-11-18T02:19:26;53.47;;;33.47;;
42702;SDS011;28341;52.064;4.920;2023-11-18T02:21:28;46.55;;;30.52;;
42702;SDS011;28341;52.064;4.920;2023-11-18T02:23:37;52.78;;;31.88;;
42702;SDS011;28341;52.064;4.920;2023-11-18T02:25:45;55.00;;;33.45;;
42702;SDS011;28341;52.064;4.920;2023-11-18T02:27:49;56.83;;;33.30;;
42702;SDS011;28341;52.064;4.920;2023-11-18T02:29:54;47.03;;;32.38;;
42702;SDS011;28341;52.064;4.920;2023-11-18T02:32:01;47.10;;;30.42;;
42702;SDS011;28341;52.064;4.920;2023-11-18T02:34:10;47.85;;;30.65;;
42702;SDS011;28341;52.064;4.920;2023-11-18T02:36:23;54.17;;;33.22;;
42702;SDS011;28341;52.064;4.920;2023-11-18T02:38:39;49.05;;;32.03;;
42702;SDS011;28341;52.064;4.920;2023-11-18T02:40:52;47.00;;;31.17;;
42702;SDS011;28341;52.064;4.920;2023-11-18T02:42:57;46.78;;;31.70;;
42702;SDS011;28341;52.064;4.920;2023-11-18T02:45:05;50.45;;;32.50;;
42702;SDS011;28341;52.064;4.920;2023-11-18T02:47:12;50.33;;;31.95;;
42702;SDS011;28341;52.064;4.920;2023-11-18T02:49:17;49.20;;;31.52;;
42702;SDS011;28341;52.064;4.920;2023-11-18T02:51:22;61.53;;;35.53;;
42702;SDS011;28341;52.064;4.920;2023-11-18T02:53:26;52.42;;;32.67;;
42702;SDS011;28341;52.064;4.920;2023-11-18T02:55:31;50.10;;;32.58;;
42702;SDS011;28341;52.064;4.920;2023-11-18T02:57:38;53.45;;;34.47;;
42702;SDS011;28341;52.064;4.920;2023-11-18T02:59:40;50.35;;;33.25;;
42702;SDS011;28341;52.064;4.920;2023-11-18T03:01:47;51.17;;;34.92;;
42702;SDS011;28341;52.064;4.920;2023-11-18T03:03:51;51.40;;;33.45;;
42702;SDS011;28341;52.064;4.920;2023-11-18T03:05:53;52.92;;;35.10;;
42702;SDS011;28341;52.064;4.920;2023-11-18T03:08:00;53.10;;;34.38;;
42702;SDS011;28341;52.064;4.920;2023-11-18T03:10:02;54.92;;;36.08;;
42702;SDS011;28341;52.064;4.920;2023-11-18T03:12:11;52.53;;;36.38;;
42702;SDS011;28341;52.064;4.920;2023-11-18T03:14:19;53.78;;;35.55;;
42702;SDS011;28341;52.064;4.920;2023-11-18T03:16:23;57.38;;;37.53;;
42702;SDS011;28341;52.064;4.920;2023-11-18T03:18:28;56.95;;;36.55;;
42702;SDS011;28341;52.064;4.920;2023-11-18T03:20:33;62.08;;;37.47;;
42702;SDS011;28341;52.064;4.920;2023-11-18T03:22:37;61.38;;;38.95;;
42702;SDS011;28341;52.064;4.920;2023-11-18T03:24:42;58.55;;;38.17;;
42702;SDS011;28341;52.064;4.920;2023-11-18T03:26:46;56.10;;;37.33;;
42702;SDS011;28341;52.064;4.920;2023-11-18T03:28:49;58.92;;;40.38;;
42702;SDS011;28341;52.064;4.920;2023-11-18T03:30:56;62.35;;;39.33;;
42702;SDS011;28341;52.064;4.920;2023-11-18T03:33:02;62.70;;;40.53;;
42702;SDS011;28341;52.064;4.920;2023-11-18T03:35:11;63.50;;;42.42;;
42702;SDS011;28341;52.064;4.920;2023-11-18T03:37:17;61.70;;;42.17;;
42702;SDS011;28341;52.064;4.920;2023-11-18T03:39:19;65.40;;;41.97;;
42702;SDS011;28341;52.064;4.920;2023-11-18T03:41:23;63.05;;;43.40;;
42702;SDS011;28341;52.064;4.920;2023-11-18T03:43:28;64.70;;;43.22;;
42702;SDS011;28341;52.064;4.920;2023-11-18T03:45:32;68.65;;;43.53;;
42702;SDS011;28341;52.064;4.920;2023-11-18T03:47:40;67.30;;;43.50;;
42702;SDS011;28341;52.064;4.920;2023-11-18T03:49:44;69.05;;;43.65;;
42702;SDS011;28341;52.064;4.920;2023-11-18T03:51:48;68.22;;;42.33;;
42702;SDS011;28341;52.064;4.920;2023-11-18T03:53:53;72.78;;;46.25;;
42702;SDS011;28341;52.064;4.920;2023-11-18T03:55:58;75.07;;;46.15;;
42702;SDS011;28341;52.064;4.920;2023-11-18T03:58:02;76.43;;;46.03;;
42702;SDS011;28341;52.064;4.920;2023-11-18T04:00:05;76.78;;;45.58;;
42702;SDS011;28341;52.064;4.920;2023-11-18T04:02:13;69.00;;;44.75;;
42702;SDS011;28341;52.064;4.920;2023-11-18T04:04:20;71.75;;;44.55;;
42702;SDS011;28341;52.064;4.920;2023-11-18T04:06:25;75.22;;;44.72;;
42702;SDS011;28341;52.064;4.920;2023-11-18T04:08:29;66.25;;;43.92;;
42702;SDS011;28341;52.064;4.920;2023-11-18T04:10:34;64.95;;;44.88;;
42702;SDS011;28341;52.064;4.920;2023-11-18T04:12:39;77.28;;;44.67;;
42702;SDS011;28341;52.064;4.920;2023-11-18T04:14:47;65.20;;;43.88;;
42702;SDS011;28341;52.064;4.920;2023-11-18T04:16:51;65.32;;;44.05;;
42702;SDS011;28341;52.064;4.920;2023-11-18T04:18:56;72.50;;;46.05;;
42702;SDS011;28341;52.064;4.920;2023-11-18T04:21:03;73.72;;;47.03;;
42702;SDS011;28341;52.064;4.920;2023-11-18T04:23:09;74.70;;;45.33;;
42702;SDS011;28341;52.064;4.920;2023-11-18T04:25:14;70.47;;;44.70;;
42702;SDS011;28341;52.064;4.920;2023-11-18T04:27:19;71.32;;;43.92;;
42702;SDS011;28341;52.064;4.920;2023-11-18T04:29:24;68.93;;;44.40;;
42702;SDS011;28341;52.064;4.920;2023-11-18T04:31:28;74.55;;;44.60;;
42702;SDS011;28341;52.064;4.920;2023-11-18T04:33:34;66.05;;;43.60;;
42702;SDS011;28341;52.064;4.920;2023-11-18T04:35:40;74.50;;;43.15;;
42702;SDS011;28341;52.064;4.920;2023-11-18T04:37:48;65.97;;;41.92;;
42702;SDS011;28341;52.064;4.920;2023-11-18T04:39:53;67.88;;;42.78;;
42702;SDS011;28341;52.064;4.920;2023-11-18T04:41:55;61.03;;;42.97;;
42702;SDS011;28341;52.064;4.920;2023-11-18T04:43:59;60.35;;;41.40;;
42702;SDS011;28341;52.064;4.920;2023-11-18T04:46:04;74.38;;;43.97;;
42702;SDS011;28341;52.064;4.920;2023-11-18T04:48:11;68.00;;;42.25;;
42702;SDS011;28341;52.064;4.920;2023-11-18T04:50:16;62.50;;;41.35;;
42702;SDS011;28341;52.064;4.920;2023-11-18T04:52:17;65.65;;;42.17;;
42702;SDS011;28341;52.064;4.920;2023-11-18T04:54:25;68.25;;;40.92;;
42702;SDS011;28341;52.064;4.920;2023-11-18T04:56:29;59.25;;;42.05;;
42702;SDS011;28341;52.064;4.920;2023-11-18T04:58:35;68.85;;;40.75;;
42702;SDS011;28341;52.064;4.920;2023-11-18T05:00:40;65.53;;;39.97;;
42702;SDS011;28341;52.064;4.920;2023-11-18T05:02:45;61.95;;;40.83;;
42702;SDS011;28341;52.064;4.920;2023-11-18T05:04:50;72.03;;;40.33;;
42702;SDS011;28341;52.064;4.920;2023-11-18T05:06:54;67.05;;;40.15;;
42702;SDS011;28341;52.064;4.920;2023-11-18T05:08:59;64.20;;;39.03;;
42702;SDS011;28341;52.064;4.920;2023-11-18T05:11:10;60.90;;;37.88;;
42702;SDS011;28341;52.064;4.920;2023-11-18T05:13:14;59.92;;;39.80;;
42702;SDS011;28341;52.064;4.920;2023-11-18T05:15:19;59.45;;;38.85;;
42702;SDS011;28341;52.064;4.920;2023-11-18T05:17:26;60.47;;;36.40;;
42702;SDS011;28341;52.064;4.920;2023-11-18T05:23:33;61.50;;;35.10;;
42702;SDS011;28341;52.064;4.920;2023-11-18T05:25:39;59.45;;;35.63;;
42702;SDS011;28341;52.064;4.920;2023-11-18T05:27:48;57.00;;;35.95;;
42702;SDS011;28341;52.064;4.920;2023-11-18T05:29:52;59.97;;;35.00;;
42702;SDS011;28341;52.064;4.920;2023-11-18T05:31:59;61.97;;;36.38;;
42702;SDS011;28341;52.064;4.920;2023-11-18T05:34:04;71.72;;;35.88;;
42702;SDS011;28341;52.064;4.920;2023-11-18T05:36:08;65.57;;;35.25;;
42702;SDS011;28341;52.064;4.920;2023-11-18T05:38:13;66.75;;;35.17;;
42702;SDS011;28341;52.064;4.920;2023-11-18T05:40:21;65.55;;;33.22;;
42702;SDS011;28341;52.064;4.920;2023-11-18T05:42:26;67.30;;;34.38;;
42702;SDS011;28341;52.064;4.920;2023-11-18T05:44:30;64.30;;;33.28;;
42702;SDS011;28341;52.064;4.920;2023-11-18T05:46:38;66.57;;;33.78;;
42702;SDS011;28341;52.064;4.920;2023-11-18T05:48:44;66.55;;;35.13;;
42702;SDS011;28341;52.064;4.920;2023-11-18T05:50:46;64.05;;;36.15;;
42702;SDS011;28341;52.064;4.920;2023-11-18T05:52:50;65.25;;;35.65;;
42702;SDS011;28341;52.064;4.920;2023-11-18T05:54:55;66.65;;;35.30;;
42702;SDS011;28341;52.064;4.920;2023-11-18T05:56:59;71.00;;;36.45;;
42702;SDS011;28341;52.064;4.920;2023-11-18T05:59:03;66.93;;;36.42;;
42702;SDS011;28341;52.064;4.920;2023-11-18T06:01:11;67.72;;;36.08;;
42702;SDS011;28341;52.064;4.920;2023-11-18T06:03:17;67.72;;;36.00;;
42702;SDS011;28341;52.064;4.920;2023-11-18T06:05:21;66.82;;;35.05;;
42702;SDS011;28341;52.064;4.920;2023-11-18T06:07:26;62.20;;;35.05;;
42702;SDS011;28341;52.064;4.920;2023-11-18T06:09:30;64.00;;;34.70;;
42702;SDS011;28341;52.064;4.920;2023-11-18T06:11:35;63.97;;;34.88;;
42702;SDS011;28341;52.064;4.920;2023-11-18T06:13:41;64.28;;;34.38;;
42702;SDS011;28341;52.064;4.920;2023-11-18T06:15:47;62.83;;;35.63;;
42702;SDS011;28341;52.064;4.920;2023-11-18T06:17:54;64.03;;;35.15;;
42702;SDS011;28341;52.064;4.920;2023-11-18T06:19:58;64.07;;;34.38;;
42702;SDS011;28341;52.064;4.920;2023-11-18T06:22:06;78.20;;;34.83;;
42702;SDS011;28341;52.064;4.920;2023-11-18T06:24:08;62.22;;;33.75;;
42702;SDS011;28341;52.064;4.920;2023-11-18T06:26:14;62.03;;;33.70;;
42702;SDS011;28341;52.064;4.920;2023-11-18T06:28:19;77.25;;;35.65;;
42702;SDS011;28341;52.064;4.920;2023-11-18T06:30:21;69.47;;;34.53;;
42702;SDS011;28341;52.064;4.920;2023-11-18T06:32:26;62.00;;;33.88;;
42702;SDS011;28341;52.064;4.920;2023-11-18T06:34:34;65.85;;;33.55;;
42702;SDS011;28341;52.064;4.920;2023-11-18T06:36:38;64.78;;;33.72;;
42702;SDS011;28341;52.064;4.920;2023-11-18T06:38:43;60.83;;;32.13;;
42702;SDS011;28341;52.064;4.920;2023-11-18T06:40:50;61.90;;;33.15;;
42702;SDS011;28341;52.064;4.920;2023-11-18T06:42:56;67.07;;;35.08;;
42702;SDS011;28341;52.064;4.920;2023-11-18T06:45:03;60.45;;;31.48;;
42702;SDS011;28341;52.064;4.920;2023-11-18T06:47:09;64.82;;;32.88;;
42702;SDS011;28341;52.064;4.920;2023-11-18T06:49:14;56.08;;;30.80;;
42702;SDS011;28341;52.064;4.920;2023-11-18T06:51:21;58.28;;;31.52;;
42702;SDS011;28341;52.064;4.920;2023-11-18T06:53:27;54.47;;;30.95;;
42702;SDS011;28341;52.064;4.920;2023-11-18T06:55:32;54.53;;;31.17;;
42702;SDS011;28341;52.064;4.920;2023-11-18T06:57:36;57.58;;;30.90;;
42702;SDS011;28341;52.064;4.920;2023-11-18T06:59:43;56.03;;;30.52;;
42702;SDS011;28341;52.064;4.920;2023-11-18T07:01:48;54.75;;;31.17;;
42702;SDS011;28341;52.064;4.920;2023-11-18T07:03:53;56.50;;;29.90;;
42702;SDS011;28341;52.064;4.920;2023-11-18T07:05:58;66.20;;;41.08;;
42702;SDS011;28341;52.064;4.920;2023-11-18T07:08:02;62.60;;;39.63;;
42702;SDS011;28341;52.064;4.920;2023-11-18T07:10:09;48.65;;;28.63;;
42702;SDS011;28341;52.064;4.920;2023-11-18T07:12:13;57.85;;;28.85;;
42702;SDS011;28341;52.064;4.920;2023-11-18T07:14:17;45.15;;;28.05;;
42702;SDS011;28341;52.064;4.920;2023-11-18T07:16:22;48.75;;;28.27;;
42702;SDS011;28341;52.064;4.920;2023-11-18T07:18:27;54.38;;;28.02;;
42702;SDS011;28341;52.064;4.920;2023-11-18T07:20:30;55.90;;;32.17;;
42702;SDS011;28341;52.064;4.920;2023-11-18T07:22:35;52.22;;;31.05;;
42702;SDS011;28341;52.064;4.920;2023-11-18T07:24:40;46.08;;;28.52;;
42702;SDS011;28341;52.064;4.920;2023-11-18T07:26:44;54.05;;;28.27;;
42702;SDS011;28341;52.064;4.920;2023-11-18T07:28:48;53.03;;;29.50;;
42702;SDS011;28341;52.064;4.920;2023-11-18T07:30:53;45.00;;;26.52;;
42702;SDS011;28341;52.064;4.920;2023-11-18T07:32:59;48.72;;;27.73;;
42702;SDS011;28341;52.064;4.920;2023-11-18T07:35:04;46.20;;;27.20;;
42702;SDS011;28341;52.064;4.920;2023-11-18T07:37:09;48.78;;;27.92;;
42702;SDS011;28341;52.064;4.920;2023-11-18T07:39:14;51.22;;;28.95;;
42702;SDS011;28341;52.064;4.920;2023-11-18T07:41:27;53.53;;;27.50;;
42702;SDS011;28341;52.064;4.920;2023-11-18T07:43:32;42.90;;;26.75;;
42702;SDS011;28341;52.064;4.920;2023-11-18T07:45:34;41.78;;;27.30;;
42702;SDS011;28341;52.064;4.920;2023-11-18T07:47:40;41.85;;;26.33;;
42702;SDS011;28341;52.064;4.920;2023-11-18T07:49:42;49.28;;;27.63;;
42702;SDS011;28341;52.064;4.920;2023-11-18T07:51:46;51.72;;;28.23;;
42702;SDS011;28341;52.064;4.920;2023-11-18T07:53:51;51.10;;;27.73;;
42702;SDS011;28341;52.064;4.920;2023-11-18T07:55:53;52.38;;;31.15;;
42702;SDS011;28341;52.064;4.920;2023-11-18T07:58:00;83.55;;;54.67;;
42702;SDS011;28341;52.064;4.920;2023-11-18T08:00:04;51.30;;;32.72;;
42702;SDS011;28341;52.064;4.920;2023-11-18T08:02:13;54.63;;;27.45;;
42702;SDS011;28341;52.064;4.920;2023-11-18T08:04:20;70.13;;;42.17;;
42702;SDS011;28341;52.064;4.920;2023-11-18T08:06:26;95.75;;;63.28;;
42702;SDS011;28341;52.064;4.920;2023-11-18T08:08:33;52.97;;;31.13;;
42702;SDS011;28341;52.064;4.920;2023-11-18T08:10:34;48.55;;;28.33;;
42702;SDS011;28341;52.064;4.920;2023-11-18T08:12:40;44.45;;;27.00;;
42702;SDS011;28341;52.064;4.920;2023-11-18T08:14:47;44.70;;;25.48;;
42702;SDS011;28341;52.064;4.920;2023-11-18T08:16:53;52.00;;;27.30;;
42702;SDS011;28341;52.064;4.920;2023-11-18T08:19:00;51.47;;;27.30;;
42702;SDS011;28341;52.064;4.920;2023-11-18T08:21:08;42.20;;;24.63;;
42702;SDS011;28341;52.064;4.920;2023-11-18T08:23:13;43.97;;;24.67;;
42702;SDS011;28341;52.064;4.920;2023-11-18T08:25:17;51.55;;;26.48;;
42702;SDS011;28341;52.064;4.920;2023-11-18T08:27:19;41.78;;;26.08;;
42702;SDS011;28341;52.064;4.920;2023-11-18T08:29:23;42.92;;;23.80;;
42702;SDS011;28341;52.064;4.920;2023-11-18T08:31:33;39.83;;;22.75;;
42702;SDS011;28341;52.064;4.920;2023-11-18T08:33:39;38.58;;;21.88;;
42702;SDS011;28341;52.064;4.920;2023-11-18T08:35:45;39.95;;;22.63;;
42702;SDS011;28341;52.064;4.920;2023-11-18T08:37:50;42.97;;;21.58;;
42702;SDS011;28341;52.064;4.920;2023-11-18T08:39:54;44.47;;;22.02;;
42702;SDS011;28341;52.064;4.920;2023-11-18T08:41:56;42.28;;;22.38;;
42702;SDS011;28341;52.064;4.920;2023-11-18T08:44:01;39.88;;;21.17;;
42702;SDS011;28341;52.064;4.920;2023-11-18T08:46:06;38.10;;;21.33;;
42702;SDS011;28341;52.064;4.920;2023-11-18T08:48:14;37.50;;;20.98;;
42702;SDS011;28341;52.064;4.920;2023-11-18T08:50:19;34.83;;;19.65;;
42702;SDS011;28341;52.064;4.920;2023-11-18T08:52:24;37.42;;;20.73;;
42702;SDS011;28341;52.064;4.920;2023-11-18T08:54:29;36.25;;;19.17;;
42702;SDS011;28341;52.064;4.920;2023-11-18T08:56:39;31.50;;;18.85;;
42702;SDS011;28341;52.064;4.920;2023-11-18T08:58:44;52.83;;;32.22;;
42702;SDS011;28341;52.064;4.920;2023-11-18T09:00:50;95.30;;;64.93;;
42702;SDS011;28341;52.064;4.920;2023-11-18T09:02:55;59.55;;;36.55;;
42702;SDS011;28341;52.064;4.920;2023-11-18T09:05:04;33.03;;;17.38;;
42702;SDS011;28341;52.064;4.920;2023-11-18T09:07:13;32.92;;;16.98;;
42702;SDS011;28341;52.064;4.920;2023-11-18T09:09:18;32.58;;;17.05;;
42702;SDS011;28341;52.064;4.920;2023-11-18T09:11:26;32.88;;;16.80;;
42702;SDS011;28341;52.064;4.920;2023-11-18T09:13:33;28.80;;;17.15;;
42702;SDS011;28341;52.064;4.920;2023-11-18T09:15:39;27.70;;;16.88;;
42702;SDS011;28341;52.064;4.920;2023-11-18T09:17:41;32.95;;;17.08;;
42702;SDS011;28341;52.064;4.920;2023-11-18T09:19:45;25.63;;;16.08;;
42702;SDS011;28341;52.064;4.920;2023-11-18T09:21:53;34.22;;;16.58;;
42702;SDS011;28341;52.064;4.920;2023-11-18T09:23:59;32.47;;;15.63;;
42702;SDS011;28341;52.064;4.920;2023-11-18T09:26:05;30.95;;;15.88;;
42702;SDS011;28341;52.064;4.920;2023-11-18T09:28:10;33.33;;;17.27;;
42702;SDS011;28341;52.064;4.920;2023-11-18T09:30:15;34.63;;;16.05;;
42702;SDS011;28341;52.064;4.920;2023-11-18T09:32:17;37.50;;;16.70;;
42702;SDS011;28341;52.064;4.920;2023-11-18T09:34:21;36.00;;;17.10;;
42702;SDS011;28341;52.064;4.920;2023-11-18T09:36:33;30.33;;;16.75;;
42702;SDS011;28341;52.064;4.920;2023-11-18T09:38:40;31.52;;;15.98;;
42702;SDS011;28341;52.064;4.920;2023-11-18T09:40:46;33.75;;;16.73;;
42702;SDS011;28341;52.064;4.920;2023-11-18T09:42:49;36.17;;;17.50;;
42702;SDS011;28341;52.064;4.920;2023-11-18T09:44:54;34.45;;;16.48;;
42702;SDS011;28341;52.064;4.920;2023-11-18T09:47:02;29.98;;;16.75;;
42702;SDS011;28341;52.064;4.920;2023-11-18T09:49:12;32.75;;;16.08;;
42702;SDS011;28341;52.064;4.920;2023-11-18T09:51:26;31.15;;;14.77;;
42702;SDS011;28341;52.064;4.920;2023-11-18T09:53:33;35.03;;;15.75;;
42702;SDS011;28341;52.064;4.920;2023-11-18T09:55:47;29.40;;;14.70;;
42702;SDS011;28341;52.064;4.920;2023-11-18T09:58:02;27.02;;;13.82;;
42702;SDS011;28341;52.064;4.920;2023-11-18T10:00:14;25.45;;;13.95;;
42702;SDS011;28341;52.064;4.920;2023-11-18T10:02:32;27.10;;;11.80;;
42702;SDS011;28341;52.064;4.920;2023-11-18T10:04:40;28.88;;;12.82;;
42702;SDS011;28341;52.064;4.920;2023-11-18T10:06:46;20.65;;;11.90;;
42702;SDS011;28341;52.064;4.920;2023-11-18T10:08:56;20.98;;;10.90;;
42702;SDS011;28341;52.064;4.920;2023-11-18T10:11:15;20.67;;;11.70;;
42702;SDS011;28341;52.064;4.920;2023-11-18T10:13:23;25.05;;;11.68;;
42702;SDS011;28341;52.064;4.920;2023-11-18T10:15:27;28.27;;;10.38;;
42702;SDS011;28341;52.064;4.920;2023-11-18T10:17:32;31.02;;;18.77;;
42702;SDS011;28341;52.064;4.920;2023-11-18T10:19:49;25.05;;;11.77;;
42702;SDS011;28341;52.064;4.920;2023-11-18T10:21:55;26.70;;;11.43;;
42702;SDS011;28341;52.064;4.920;2023-11-18T10:24:04;22.05;;;9.57;;
42702;SDS011;28341;52.064;4.920;2023-11-18T10:26:14;28.13;;;11.68;;
42702;SDS011;28341;52.064;4.920;2023-11-18T10:28:22;25.90;;;10.60;;
42702;SDS011;28341;52.064;4.920;2023-11-18T10:30:27;23.40;;;9.75;;
42702;SDS011;28341;52.064;4.920;2023-11-18T10:32:32;23.70;;;10.07;;
42702;SDS011;28341;52.064;4.920;2023-11-18T10:34:40;16.08;;;9.88;;
42702;SDS011;28341;52.064;4.920;2023-11-18T10:36:58;16.38;;;8.50;;
42702;SDS011;28341;52.064;4.920;2023-11-18T10:39:06;25.27;;;9.98;;
42702;SDS011;28341;52.064;4.920;2023-11-18T10:41:17;18.70;;;8.43;;
42702;SDS011;28341;52.064;4.920;2023-11-18T10:43:20;18.88;;;9.40;;
42702;SDS011;28341;52.064;4.920;2023-11-18T10:45:24;61.08;;;10.90;;
42702;SDS011;28341;52.064;4.920;2023-11-18T10:47:32;18.23;;;7.80;;
42702;SDS011;28341;52.064;4.920;2023-11-18T10:49:39;27.85;;;8.85;;
42702;SDS011;28341;52.064;4.920;2023-11-18T10:51:43;15.30;;;8.10;;
42702;SDS011;28341;52.064;4.920;2023-11-18T10:53:48;21.25;;;8.27;;
42702;SDS011;28341;52.064;4.920;2023-11-18T10:56:01;17.60;;;8.30;;
42702;SDS011;28341;52.064;4.920;2023-11-18T10:58:06;22.42;;;8.20;;
42702;SDS011;28341;52.064;4.920;2023-11-18T11:00:11;19.13;;;7.55;;
42702;SDS011;28341;52.064;4.920;2023-11-18T11:02:19;18.55;;;8.27;;
42702;SDS011;28341;52.064;4.920;2023-11-18T11:04:24;20.55;;;8.13;;
42702;SDS011;28341;52.064;4.920;2023-11-18T11:06:29;20.42;;;8.18;;
42702;SDS011;28341;52.064;4.920;2023-11-18T11:08:32;20.02;;;8.95;;
42702;SDS011;28341;52.064;4.920;2023-11-18T11:10:37;19.65;;;11.43;;
42702;SDS011;28341;52.064;4.920;2023-11-18T11:12:47;32.63;;;19.73;;
42702;SDS011;28341;52.064;4.920;2023-11-18T11:14:57;18.60;;;7.75;;
42702;SDS011;28341;52.064;4.920;2023-11-18T11:17:05;17.48;;;8.60;;
42702;SDS011;28341;52.064;4.920;2023-11-18T11:19:16;14.38;;;7.72;;
42702;SDS011;28341;52.064;4.920;2023-11-18T11:21:26;18.42;;;8.25;;
42702;SDS011;28341;52.064;4.920;2023-11-18T11:23:35;20.20;;;8.57;;
42702;SDS011;28341;52.064;4.920;2023-11-18T11:25:52;16.88;;;8.82;;
42702;SDS011;28341;52.064;4.920;2023-11-18T11:28:15;19.50;;;8.45;;
42702;SDS011;28341;52.064;4.920;2023-11-18T11:30:24;24.25;;;9.82;;
42702;SDS011;28341;52.064;4.920;2023-11-18T11:32:39;22.40;;;10.35;;
42702;SDS011;28341;52.064;4.920;2023-11-18T11:34:51;22.35;;;9.13;;
42702;SDS011;28341;52.064;4.920;2023-11-18T11:36:59;17.20;;;7.72;;
42702;SDS011;28341;52.064;4.920;2023-11-18T11:39:06;20.92;;;9.23;;
42702;SDS011;28341;52.064;4.920;2023-11-18T11:41:15;65.22;;;40.42;;
42702;SDS011;28341;52.064;4.920;2023-11-18T11:43:23;20.38;;;8.35;;
42702;SDS011;28341;52.064;4.920;2023-11-18T11:45:28;24.45;;;9.20;;
42702;SDS011;28341;52.064;4.920;2023-11-18T11:47:30;20.52;;;9.90;;
42702;SDS011;28341;52.064;4.920;2023-11-18T11:49:41;19.17;;;8.02;;
42702;SDS011;28341;52.064;4.920;2023-11-18T11:51:54;17.77;;;9.13;;
42702;SDS011;28341;52.064;4.920;2023-11-18T11:54:06;19.98;;;8.80;;
42702;SDS011;28341;52.064;4.920;2023-11-18T11:56:15;18.92;;;8.60;;
42702;SDS011;28341;52.064;4.920;2023-11-18T11:58:30;17.80;;;8.45;;
42702;SDS011;28341;52.064;4.920;2023-11-18T12:00:34;17.42;;;8.50;;
42702;SDS011;28341;52.064;4.920;2023-11-18T12:02:47;16.08;;;7.47;;
42702;SDS011;28341;52.064;4.920;2023-11-18T12:04:55;17.20;;;7.85;;
42702;SDS011;28341;52.064;4.920;2023-11-18T12:07:07;16.90;;;7.82;;
42702;SDS011;28341;52.064;4.920;2023-11-18T12:09:15;14.20;;;7.75;;
42702;SDS011;28341;52.064;4.920;2023-11-18T12:11:20;15.13;;;6.80;;
42702;SDS011;28341;52.064;4.920;2023-11-18T12:13:30;15.32;;;7.80;;
42702;SDS011;28341;52.064;4.920;2023-11-18T12:15:47;17.30;;;7.28;;
42702;SDS011;28341;52.064;4.920;2023-11-18T12:18:09;19.10;;;8.05;;
42702;SDS011;28341;52.064;4.920;2023-11-18T12:27:42;14.52;;;6.97;;
42702;SDS011;28341;52.064;4.920;2023-11-18T12:29:54;14.88;;;6.72;;
42702;SDS011;28341;52.064;4.920;2023-11-18T12:31:58;17.23;;;7.20;;